sensor_id;sensor_type;location;lat;lon;timestamp;temperature;humidity
58666;DHT22;44436;52.872;6.520;2022-09-01T00:00:36;16.00;93.50
58666;DHT22;44436;52.872;6.520;2022-09-01T00:03:03;16.00;93.60
58666;DHT22;44436;52.872;6.520;2022-09-01T00:05:29;16.00;93.60
58666;DHT22;44436;52.872;6.520;2022-09-01T00:07:57;15.90;93.50
58666;DHT22;44436;52.872;6.520;2022-09-01T00:10:23;15.90;93.50
58666;DHT22;44436;52.872;6.520;2022-09-01T00:12:48;15.90;93.50
58666;DHT22;44436;52.872;6.520;2022-09-01T00:15:14;15.80;93.50
58666;DHT22;44436;52.872;6.520;2022-09-01T00:17:40;15.80;93.60
58666;DHT22;44436;52.872;6.520;2022-09-01T00:20:07;15.80;93.60
58666;DHT22;44436;52.872;6.520;2022-09-01T00:22:32;15.70;93.70
58666;DHT22;44436;52.872;6.520;2022-09-01T00:24:58;15.70;93.60
58666;DHT22;44436;52.872;6.520;2022-09-01T00:27:25;15.70;93.60
58666;DHT22;44436;52.872;6.520;2022-09-01T00:29:51;15.70;93.50
58666;DHT22;44436;52.872;6.520;2022-09-01T00:32:16;15.60;93.40
58666;DHT22;44436;52.872;6.520;2022-09-01T00:34:42;15.70;93.40
58666;DHT22;44436;52.872;6.520;2022-09-01T00:37:07;15.70;93.40
58666;DHT22;44436;52.872;6.520;2022-09-01T00:39:33;15.70;93.40
58666;DHT22;44436;52.872;6.520;2022-09-01T00:41:59;15.60;93.40
58666;DHT22;44436;52.872;6.520;2022-09-01T00:44:25;15.60;93.40
58666;DHT22;44436;52.872;6.520;2022-09-01T00:46:53;15.60;93.40
58666;DHT22;44436;52.872;6.520;2022-09-01T00:49:26;15.60;93.40
58666;DHT22;44436;52.872;6.520;2022-09-01T00:52:00;15.50;93.30
58666;DHT22;44436;52.872;6.520;2022-09-01T00:54:30;15.50;93.30
58666;DHT22;44436;52.872;6.520;2022-09-01T00:56:57;15.50;93.30
58666;DHT22;44436;52.872;6.520;2022-09-01T00:59:23;15.50;93.30
58666;DHT22;44436;52.872;6.520;2022-09-01T01:01:49;15.50;93.30
58666;DHT22;44436;52.872;6.520;2022-09-01T01:04:15;15.40;93.20
58666;DHT22;44436;52.872;6.520;2022-09-01T01:06:43;15.40;93.30
58666;DHT22;44436;52.872;6.520;2022-09-01T01:09:18;15.40;93.30
58666;DHT22;44436;52.872;6.520;2022-09-01T01:11:44;15.40;93.30
58666;DHT22;44436;52.872;6.520;2022-09-01T01:14:13;15.40;93.30
58666;DHT22;44436;52.872;6.520;2022-09-01T01:16:50;15.30;93.40
58666;DHT22;44436;52.872;6.520;2022-09-01T01:22:15;15.30;93.40
58666;DHT22;44436;52.872;6.520;2022-09-01T01:25:00;15.20;93.40
58666;DHT22;44436;52.872;6.520;2022-09-01T01:27:31;15.20;93.40
58666;DHT22;44436;52.872;6.520;2022-09-01T01:30:03;15.20;93.30
58666;DHT22;44436;52.872;6.520;2022-09-01T01:32:29;15.20;93.20
58666;DHT22;44436;52.872;6.520;2022-09-01T01:34:55;15.20;93.20
58666;DHT22;44436;52.872;6.520;2022-09-01T01:37:22;15.10;93.30
58666;DHT22;44436;52.872;6.520;2022-09-01T01:39:50;15.10;93.30
58666;DHT22;44436;52.872;6.520;2022-09-01T01:42:16;15.10;93.30
58666;DHT22;44436;52.872;6.520;2022-09-01T01:44:42;15.10;93.30
58666;DHT22;44436;52.872;6.520;2022-09-01T01:47:11;15.10;93.30
58666;DHT22;44436;52.872;6.520;2022-09-01T01:49:39;15.00;93.30
58666;DHT22;44436;52.872;6.520;2022-09-01T01:52:09;14.90;93.30
58666;DHT22;44436;52.872;6.520;2022-09-01T01:54:35;14.90;93.40
58666;DHT22;44436;52.872;6.520;2022-09-01T01:57:03;14.90;93.50
58666;DHT22;44436;52.872;6.520;2022-09-01T01:59:29;14.80;93.50
58666;DHT22;44436;52.872;6.520;2022-09-01T02:01:55;14.80;93.60
58666;DHT22;44436;52.872;6.520;2022-09-01T02:04:21;14.80;93.60
58666;DHT22;44436;52.872;6.520;2022-09-01T02:06:48;14.80;93.70
58666;DHT22;44436;52.872;6.520;2022-09-01T02:09:18;14.70;93.60
58666;DHT22;44436;52.872;6.520;2022-09-01T02:11:44;14.70;93.70
58666;DHT22;44436;52.872;6.520;2022-09-01T02:14:10;14.70;93.70
58666;DHT22;44436;52.872;6.520;2022-09-01T02:16:37;14.70;93.70
58666;DHT22;44436;52.872;6.520;2022-09-01T02:19:05;14.70;93.70
58666;DHT22;44436;52.872;6.520;2022-09-01T02:21:31;14.70;93.70
58666;DHT22;44436;52.872;6.520;2022-09-01T02:24:00;14.60;93.70
58666;DHT22;44436;52.872;6.520;2022-09-01T02:26:39;14.60;94.10
58666;DHT22;44436;52.872;6.520;2022-09-01T02:29:08;14.60;93.80
58666;DHT22;44436;52.872;6.520;2022-09-01T02:31:43;14.50;93.80
58666;DHT22;44436;52.872;6.520;2022-09-01T02:34:09;14.50;93.80
58666;DHT22;44436;52.872;6.520;2022-09-01T02:36:46;14.50;93.80
58666;DHT22;44436;52.872;6.520;2022-09-01T02:39:21;14.50;93.80
58666;DHT22;44436;52.872;6.520;2022-09-01T02:41:49;14.50;93.90
58666;DHT22;44436;52.872;6.520;2022-09-01T02:44:14;14.40;94.00
58666;DHT22;44436;52.872;6.520;2022-09-01T02:46:42;14.40;94.00
58666;DHT22;44436;52.872;6.520;2022-09-01T02:49:14;14.30;94.10
58666;DHT22;44436;52.872;6.520;2022-09-01T02:51:43;14.30;94.10
58666;DHT22;44436;52.872;6.520;2022-09-01T02:54:10;14.30;94.20
58666;DHT22;44436;52.872;6.520;2022-09-01T02:56:40;14.30;94.20
58666;DHT22;44436;52.872;6.520;2022-09-01T02:59:05;14.20;94.20
58666;DHT22;44436;52.872;6.520;2022-09-01T03:01:36;14.20;94.30
58666;DHT22;44436;52.872;6.520;2022-09-01T03:04:03;14.30;94.30
58666;DHT22;44436;52.872;6.520;2022-09-01T03:06:30;14.20;94.30
58666;DHT22;44436;52.872;6.520;2022-09-01T03:08:59;14.20;94.30
58666;DHT22;44436;52.872;6.520;2022-09-01T03:11:26;14.20;94.30
58666;DHT22;44436;52.872;6.520;2022-09-01T03:13:53;14.20;94.40
58666;DHT22;44436;52.872;6.520;2022-09-01T03:16:19;14.20;94.40
58666;DHT22;44436;52.872;6.520;2022-09-01T03:18:46;14.20;94.40
58666;DHT22;44436;52.872;6.520;2022-09-01T03:21:13;14.10;94.50
58666;DHT22;44436;52.872;6.520;2022-09-01T03:23:43;14.10;94.50
58666;DHT22;44436;52.872;6.520;2022-09-01T03:26:09;14.10;94.60
58666;DHT22;44436;52.872;6.520;2022-09-01T03:28:35;14.10;94.60
58666;DHT22;44436;52.872;6.520;2022-09-01T03:31:02;14.00;94.60
58666;DHT22;44436;52.872;6.520;2022-09-01T03:33:28;14.00;94.70
58666;DHT22;44436;52.872;6.520;2022-09-01T03:35:55;14.00;94.80
58666;DHT22;44436;52.872;6.520;2022-09-01T03:38:21;13.90;94.90
58666;DHT22;44436;52.872;6.520;2022-09-01T03:40:53;13.90;95.00
58666;DHT22;44436;52.872;6.520;2022-09-01T03:43:19;13.80;95.00
58666;DHT22;44436;52.872;6.520;2022-09-01T03:45:50;13.80;95.00
58666;DHT22;44436;52.872;6.520;2022-09-01T03:48:16;13.80;95.10
58666;DHT22;44436;52.872;6.520;2022-09-01T03:50:43;13.80;95.10
58666;DHT22;44436;52.872;6.520;2022-09-01T03:53:17;13.80;95.10
58666;DHT22;44436;52.872;6.520;2022-09-01T03:55:47;13.90;95.20
58666;DHT22;44436;52.872;6.520;2022-09-01T03:58:17;13.80;95.10
58666;DHT22;44436;52.872;6.520;2022-09-01T04:00:53;13.90;95.10
58666;DHT22;44436;52.872;6.520;2022-09-01T04:03:20;13.80;95.00
58666;DHT22;44436;52.872;6.520;2022-09-01T04:05:48;13.80;95.00
58666;DHT22;44436;52.872;6.520;2022-09-01T04:08:15;13.80;95.00
58666;DHT22;44436;52.872;6.520;2022-09-01T04:10:47;13.90;95.00
58666;DHT22;44436;52.872;6.520;2022-09-01T04:13:19;13.90;95.00
58666;DHT22;44436;52.872;6.520;2022-09-01T04:15:46;13.90;95.00
58666;DHT22;44436;52.872;6.520;2022-09-01T04:18:12;13.90;95.00
58666;DHT22;44436;52.872;6.520;2022-09-01T04:20:47;13.90;95.00
58666;DHT22;44436;52.872;6.520;2022-09-01T04:25:47;13.80;95.10
58666;DHT22;44436;52.872;6.520;2022-09-01T04:28:14;13.80;95.10
58666;DHT22;44436;52.872;6.520;2022-09-01T04:30:49;13.80;95.10
58666;DHT22;44436;52.872;6.520;2022-09-01T04:33:15;13.80;95.10
58666;DHT22;44436;52.872;6.520;2022-09-01T04:35:41;13.80;95.10
58666;DHT22;44436;52.872;6.520;2022-09-01T04:38:07;13.80;95.20
58666;DHT22;44436;52.872;6.520;2022-09-01T04:40:37;13.80;95.20
58666;DHT22;44436;52.872;6.520;2022-09-01T04:43:05;13.80;95.30
58666;DHT22;44436;52.872;6.520;2022-09-01T04:45:31;13.70;95.30
58666;DHT22;44436;52.872;6.520;2022-09-01T04:48:03;13.80;95.30
58666;DHT22;44436;52.872;6.520;2022-09-01T04:50:30;13.80;95.30
58666;DHT22;44436;52.872;6.520;2022-09-01T04:52:58;13.70;95.40
58666;DHT22;44436;52.872;6.520;2022-09-01T04:55:27;13.70;95.50
58666;DHT22;44436;52.872;6.520;2022-09-01T04:57:56;13.70;95.60
58666;DHT22;44436;52.872;6.520;2022-09-01T05:00:24;13.70;95.60
58666;DHT22;44436;52.872;6.520;2022-09-01T05:02:53;13.60;95.60
58666;DHT22;44436;52.872;6.520;2022-09-01T05:05:20;13.70;95.60
58666;DHT22;44436;52.872;6.520;2022-09-01T05:07:46;13.70;95.60
58666;DHT22;44436;52.872;6.520;2022-09-01T05:10:18;13.70;95.50
58666;DHT22;44436;52.872;6.520;2022-09-01T05:12:44;13.70;95.60
58666;DHT22;44436;52.872;6.520;2022-09-01T05:15:11;13.70;95.60
58666;DHT22;44436;52.872;6.520;2022-09-01T05:17:38;13.70;95.60
58666;DHT22;44436;52.872;6.520;2022-09-01T05:20:05;13.70;95.60
58666;DHT22;44436;52.872;6.520;2022-09-01T05:22:32;13.70;95.60
58666;DHT22;44436;52.872;6.520;2022-09-01T05:25:00;13.80;95.60
58666;DHT22;44436;52.872;6.520;2022-09-01T05:27:42;13.80;95.60
58666;DHT22;44436;52.872;6.520;2022-09-01T05:30:15;13.80;95.60
58666;DHT22;44436;52.872;6.520;2022-09-01T05:32:42;13.80;95.60
58666;DHT22;44436;52.872;6.520;2022-09-01T05:35:13;13.80;96.00
58666;DHT22;44436;52.872;6.520;2022-09-01T05:37:39;13.80;95.70
58666;DHT22;44436;52.872;6.520;2022-09-01T05:40:08;13.80;95.70
58666;DHT22;44436;52.872;6.520;2022-09-01T05:42:34;13.80;95.80
58666;DHT22;44436;52.872;6.520;2022-09-01T05:45:04;13.80;95.80
58666;DHT22;44436;52.872;6.520;2022-09-01T05:47:29;13.90;95.80
58666;DHT22;44436;52.872;6.520;2022-09-01T05:49:55;13.90;95.80
58666;DHT22;44436;52.872;6.520;2022-09-01T05:52:21;13.90;95.80
58666;DHT22;44436;52.872;6.520;2022-09-01T05:54:49;14.00;95.80
58666;DHT22;44436;52.872;6.520;2022-09-01T05:57:17;14.00;95.80
58666;DHT22;44436;52.872;6.520;2022-09-01T05:59:44;14.10;95.90
58666;DHT22;44436;52.872;6.520;2022-09-01T06:02:21;14.10;95.90
58666;DHT22;44436;52.872;6.520;2022-09-01T06:04:47;14.10;96.30
58666;DHT22;44436;52.872;6.520;2022-09-01T06:07:15;14.20;95.90
58666;DHT22;44436;52.872;6.520;2022-09-01T06:09:45;14.20;95.90
58666;DHT22;44436;52.872;6.520;2022-09-01T06:12:11;14.20;95.90
58666;DHT22;44436;52.872;6.520;2022-09-01T06:14:46;14.30;95.90
58666;DHT22;44436;52.872;6.520;2022-09-01T06:17:12;14.30;95.90
58666;DHT22;44436;52.872;6.520;2022-09-01T06:19:41;14.40;95.90
58666;DHT22;44436;52.872;6.520;2022-09-01T06:22:07;14.40;95.90
58666;DHT22;44436;52.872;6.520;2022-09-01T06:24:36;14.50;95.90
58666;DHT22;44436;52.872;6.520;2022-09-01T06:27:04;14.50;95.90
58666;DHT22;44436;52.872;6.520;2022-09-01T06:29:35;14.60;96.00
58666;DHT22;44436;52.872;6.520;2022-09-01T06:32:05;14.60;96.00
58666;DHT22;44436;52.872;6.520;2022-09-01T06:34:34;14.70;96.00
58666;DHT22;44436;52.872;6.520;2022-09-01T06:37:00;14.70;95.90
58666;DHT22;44436;52.872;6.520;2022-09-01T06:39:26;14.80;95.90
58666;DHT22;44436;52.872;6.520;2022-09-01T06:41:52;14.90;95.90
58666;DHT22;44436;52.872;6.520;2022-09-01T06:44:20;14.90;95.80
58666;DHT22;44436;52.872;6.520;2022-09-01T06:46:48;15.00;95.80
58666;DHT22;44436;52.872;6.520;2022-09-01T06:49:14;15.10;95.80
58666;DHT22;44436;52.872;6.520;2022-09-01T06:51:40;15.10;95.80
58666;DHT22;44436;52.872;6.520;2022-09-01T06:54:05;15.20;95.70
58666;DHT22;44436;52.872;6.520;2022-09-01T06:56:32;15.30;95.70
58666;DHT22;44436;52.872;6.520;2022-09-01T06:59:00;15.30;95.70
58666;DHT22;44436;52.872;6.520;2022-09-01T07:01:28;15.50;95.60
58666;DHT22;44436;52.872;6.520;2022-09-01T07:03:54;15.50;95.50
58666;DHT22;44436;52.872;6.520;2022-09-01T07:06:24;15.60;95.40
58666;DHT22;44436;52.872;6.520;2022-09-01T07:08:55;15.60;95.30
58666;DHT22;44436;52.872;6.520;2022-09-01T07:11:24;15.70;95.20
58666;DHT22;44436;52.872;6.520;2022-09-01T07:13:54;15.80;95.20
58666;DHT22;44436;52.872;6.520;2022-09-01T07:16:21;15.90;95.00
58666;DHT22;44436;52.872;6.520;2022-09-01T07:18:49;16.00;94.90
58666;DHT22;44436;52.872;6.520;2022-09-01T07:21:15;16.10;94.90
58666;DHT22;44436;52.872;6.520;2022-09-01T07:23:41;16.10;94.80
58666;DHT22;44436;52.872;6.520;2022-09-01T07:26:09;16.20;94.70
58666;DHT22;44436;52.872;6.520;2022-09-01T07:28:37;16.30;94.70
58666;DHT22;44436;52.872;6.520;2022-09-01T07:31:03;16.40;94.60
58666;DHT22;44436;52.872;6.520;2022-09-01T07:33:30;16.50;94.50
58666;DHT22;44436;52.872;6.520;2022-09-01T07:35:56;16.60;94.40
58666;DHT22;44436;52.872;6.520;2022-09-01T07:38:26;16.70;94.20
58666;DHT22;44436;52.872;6.520;2022-09-01T07:40:53;16.80;94.20
58666;DHT22;44436;52.872;6.520;2022-09-01T07:43:21;16.80;94.10
58666;DHT22;44436;52.872;6.520;2022-09-01T07:45:50;16.90;93.90
58666;DHT22;44436;52.872;6.520;2022-09-01T07:48:18;17.00;93.70
58666;DHT22;44436;52.872;6.520;2022-09-01T07:50:45;17.10;93.70
58666;DHT22;44436;52.872;6.520;2022-09-01T07:53:16;17.20;93.50
58666;DHT22;44436;52.872;6.520;2022-09-01T07:55:44;17.30;93.30
58666;DHT22;44436;52.872;6.520;2022-09-01T07:58:12;17.30;93.10
58666;DHT22;44436;52.872;6.520;2022-09-01T08:00:41;17.40;93.00
58666;DHT22;44436;52.872;6.520;2022-09-01T08:03:11;17.50;92.80
58666;DHT22;44436;52.872;6.520;2022-09-01T08:05:37;17.60;92.70
58666;DHT22;44436;52.872;6.520;2022-09-01T08:08:04;17.60;92.50
58666;DHT22;44436;52.872;6.520;2022-09-01T08:10:29;17.70;92.40
58666;DHT22;44436;52.872;6.520;2022-09-01T08:12:55;17.80;92.40
58666;DHT22;44436;52.872;6.520;2022-09-01T08:15:21;17.90;92.30
58666;DHT22;44436;52.872;6.520;2022-09-01T08:17:47;18.00;92.20
58666;DHT22;44436;52.872;6.520;2022-09-01T08:20:13;18.10;92.10
58666;DHT22;44436;52.872;6.520;2022-09-01T08:22:39;18.20;92.00
58666;DHT22;44436;52.872;6.520;2022-09-01T08:25:06;18.30;91.80
58666;DHT22;44436;52.872;6.520;2022-09-01T08:27:34;18.40;91.70
58666;DHT22;44436;52.872;6.520;2022-09-01T08:30:03;18.50;91.60
58666;DHT22;44436;52.872;6.520;2022-09-01T08:32:29;18.70;91.40
58666;DHT22;44436;52.872;6.520;2022-09-01T08:34:55;18.70;91.00
58666;DHT22;44436;52.872;6.520;2022-09-01T08:37:22;18.80;91.00
58666;DHT22;44436;52.872;6.520;2022-09-01T08:39:47;18.90;90.90
58666;DHT22;44436;52.872;6.520;2022-09-01T08:47:11;19.20;90.10
58666;DHT22;44436;52.872;6.520;2022-09-01T08:49:39;19.30;90.10
58666;DHT22;44436;52.872;6.520;2022-09-01T08:54:59;19.50;88.90
58666;DHT22;44436;52.872;6.520;2022-09-01T08:57:34;19.60;88.10
58666;DHT22;44436;52.872;6.520;2022-09-01T09:00:02;19.70;87.50
58666;DHT22;44436;52.872;6.520;2022-09-01T09:15:00;20.30;86.60
58666;DHT22;44436;52.872;6.520;2022-09-01T09:17:06;20.40;85.20
58666;DHT22;44436;52.872;6.520;2022-09-01T09:19:34;20.50;85.00
58666;DHT22;44436;52.872;6.520;2022-09-01T09:22:04;20.60;84.00
58666;DHT22;44436;52.872;6.520;2022-09-01T09:24:47;20.60;83.40
58666;DHT22;44436;52.872;6.520;2022-09-01T09:27:18;20.80;82.80
58666;DHT22;44436;52.872;6.520;2022-09-01T09:32:21;20.90;81.50
58666;DHT22;44436;52.872;6.520;2022-09-01T09:34:48;21.10;80.70
58666;DHT22;44436;52.872;6.520;2022-09-01T09:40:10;21.20;79.00
58666;DHT22;44436;52.872;6.520;2022-09-01T09:42:41;21.30;78.20
58666;DHT22;44436;52.872;6.520;2022-09-01T09:45:26;21.40;78.30
58666;DHT22;44436;52.872;6.520;2022-09-01T09:47:56;21.50;76.80
58666;DHT22;44436;52.872;6.520;2022-09-01T09:50:41;21.50;76.40
58666;DHT22;44436;52.872;6.520;2022-09-01T09:56:24;21.80;74.00
58666;DHT22;44436;52.872;6.520;2022-09-01T09:58:51;21.80;74.20
58666;DHT22;44436;52.872;6.520;2022-09-01T10:03:51;22.00;74.40
58666;DHT22;44436;52.872;6.520;2022-09-01T10:06:33;22.10;74.20
58666;DHT22;44436;52.872;6.520;2022-09-01T10:09:02;22.20;72.30
58666;DHT22;44436;52.872;6.520;2022-09-01T10:11:40;22.30;71.30
58666;DHT22;44436;52.872;6.520;2022-09-01T10:14:22;22.40;69.80
58666;DHT22;44436;52.872;6.520;2022-09-01T10:16:53;22.50;69.20
58666;DHT22;44436;52.872;6.520;2022-09-01T10:19:21;22.60;69.00
58666;DHT22;44436;52.872;6.520;2022-09-01T10:21:47;22.70;68.70
58666;DHT22;44436;52.872;6.520;2022-09-01T10:26:52;22.80;67.40
58666;DHT22;44436;52.872;6.520;2022-09-01T10:29:21;22.90;66.30
58666;DHT22;44436;52.872;6.520;2022-09-01T10:31:48;23.00;65.20
58666;DHT22;44436;52.872;6.520;2022-09-01T10:34:16;23.10;64.50
58666;DHT22;44436;52.872;6.520;2022-09-01T10:36:45;23.10;63.20
58666;DHT22;44436;52.872;6.520;2022-09-01T10:39:13;23.20;62.30
58666;DHT22;44436;52.872;6.520;2022-09-01T10:41:49;23.10;61.10
58666;DHT22;44436;52.872;6.520;2022-09-01T10:44:28;23.00;61.10
58666;DHT22;44436;52.872;6.520;2022-09-01T10:47:00;23.00;61.50
58666;DHT22;44436;52.872;6.520;2022-09-01T10:51:53;23.10;61.40
58666;DHT22;44436;52.872;6.520;2022-09-01T10:57:10;23.20;60.40
58666;DHT22;44436;52.872;6.520;2022-09-01T10:59:37;23.30;59.10
58666;DHT22;44436;52.872;6.520;2022-09-01T11:07:00;22.90;58.50
58666;DHT22;44436;52.872;6.520;2022-09-01T11:09:33;22.80;58.20
58666;DHT22;44436;52.872;6.520;2022-09-01T11:14:32;22.80;59.60
58666;DHT22;44436;52.872;6.520;2022-09-01T11:22:29;23.30;58.40
58666;DHT22;44436;52.872;6.520;2022-09-01T11:30:45;23.40;57.70
58666;DHT22;44436;52.872;6.520;2022-09-01T11:44:55;23.80;57.30
58666;DHT22;44436;52.872;6.520;2022-09-01T11:47:36;23.80;55.90
58666;DHT22;44436;52.872;6.520;2022-09-01T11:52:40;23.70;57.50
58666;DHT22;44436;52.872;6.520;2022-09-01T11:55:07;23.80;57.80
58666;DHT22;44436;52.872;6.520;2022-09-01T11:57:34;24.00;56.80
58666;DHT22;44436;52.872;6.520;2022-09-01T12:00:06;24.00;56.80
58666;DHT22;44436;52.872;6.520;2022-09-01T12:02:34;24.00;55.50
58666;DHT22;44436;52.872;6.520;2022-09-01T12:05:02;23.90;55.10
58666;DHT22;44436;52.872;6.520;2022-09-01T12:07:44;23.90;55.30
58666;DHT22;44436;52.872;6.520;2022-09-01T12:13:09;24.00;55.00
58666;DHT22;44436;52.872;6.520;2022-09-01T12:15:37;24.10;56.00
58666;DHT22;44436;52.872;6.520;2022-09-01T12:18:21;24.20;55.50
58666;DHT22;44436;52.872;6.520;2022-09-01T12:20:49;24.20;54.80
58666;DHT22;44436;52.872;6.520;2022-09-01T12:26:02;24.20;56.50
58666;DHT22;44436;52.872;6.520;2022-09-01T12:28:30;24.40;56.10
58666;DHT22;44436;52.872;6.520;2022-09-01T12:31:00;24.60;55.80
58666;DHT22;44436;52.872;6.520;2022-09-01T12:33:27;24.70;54.50
58666;DHT22;44436;52.872;6.520;2022-09-01T12:36:19;24.70;53.90
58666;DHT22;44436;52.872;6.520;2022-09-01T12:38:46;24.70;53.10
58666;DHT22;44436;52.872;6.520;2022-09-01T12:41:35;24.50;54.20
58666;DHT22;44436;52.872;6.520;2022-09-01T12:44:31;24.30;54.30
58666;DHT22;44436;52.872;6.520;2022-09-01T12:49:53;24.40;54.90
58666;DHT22;44436;52.872;6.520;2022-09-01T12:52:21;24.40;53.80
58666;DHT22;44436;52.872;6.520;2022-09-01T12:57:47;24.20;53.40
58666;DHT22;44436;52.872;6.520;2022-09-01T13:00:30;24.10;53.50
58666;DHT22;44436;52.872;6.520;2022-09-01T13:05:36;24.20;53.70
58666;DHT22;44436;52.872;6.520;2022-09-01T13:08:07;24.40;53.70
58666;DHT22;44436;52.872;6.520;2022-09-01T13:10:36;24.60;52.80
58666;DHT22;44436;52.872;6.520;2022-09-01T13:13:05;24.60;52.30
58666;DHT22;44436;52.872;6.520;2022-09-01T13:15:32;24.80;52.50
58666;DHT22;44436;52.872;6.520;2022-09-01T13:17:58;24.90;52.70
58666;DHT22;44436;52.872;6.520;2022-09-01T13:20:24;25.10;52.30
58666;DHT22;44436;52.872;6.520;2022-09-01T13:22:50;25.20;51.40
58666;DHT22;44436;52.872;6.520;2022-09-01T13:25:18;25.30;51.30
58666;DHT22;44436;52.872;6.520;2022-09-01T13:27:45;25.40;51.30
58666;DHT22;44436;52.872;6.520;2022-09-01T13:30:20;25.50;51.50
58666;DHT22;44436;52.872;6.520;2022-09-01T13:32:47;25.50;51.10
58666;DHT22;44436;52.872;6.520;2022-09-01T13:35:16;25.50;50.90
58666;DHT22;44436;52.872;6.520;2022-09-01T13:37:44;25.50;50.60
58666;DHT22;44436;52.872;6.520;2022-09-01T13:40:10;25.60;50.90
58666;DHT22;44436;52.872;6.520;2022-09-01T13:42:44;25.50;50.50
58666;DHT22;44436;52.872;6.520;2022-09-01T13:45:11;25.40;50.00
58666;DHT22;44436;52.872;6.520;2022-09-01T13:47:40;25.40;50.00
58666;DHT22;44436;52.872;6.520;2022-09-01T13:50:07;25.40;50.10
58666;DHT22;44436;52.872;6.520;2022-09-01T13:52:33;25.50;51.20
58666;DHT22;44436;52.872;6.520;2022-09-01T13:54:59;25.60;50.70
58666;DHT22;44436;52.872;6.520;2022-09-01T13:57:26;25.80;50.80
58666;DHT22;44436;52.872;6.520;2022-09-01T13:59:51;26.00;50.00
58666;DHT22;44436;52.872;6.520;2022-09-01T14:02:17;26.00;49.20
58666;DHT22;44436;52.872;6.520;2022-09-01T14:04:43;26.00;48.80
58666;DHT22;44436;52.872;6.520;2022-09-01T14:07:08;26.00;48.40
58666;DHT22;44436;52.872;6.520;2022-09-01T14:09:34;25.80;48.50
58666;DHT22;44436;52.872;6.520;2022-09-01T14:12:00;25.70;48.50
58666;DHT22;44436;52.872;6.520;2022-09-01T14:14:26;25.60;49.30
58666;DHT22;44436;52.872;6.520;2022-09-01T14:16:52;25.60;48.50
58666;DHT22;44436;52.872;6.520;2022-09-01T14:19:18;25.70;49.10
58666;DHT22;44436;52.872;6.520;2022-09-01T14:21:44;25.90;49.70
58666;DHT22;44436;52.872;6.520;2022-09-01T14:24:11;26.00;49.10
58666;DHT22;44436;52.872;6.520;2022-09-01T14:26:39;26.20;48.50
58666;DHT22;44436;52.872;6.520;2022-09-01T14:29:05;26.10;47.50
58666;DHT22;44436;52.872;6.520;2022-09-01T14:31:31;26.00;48.00
58666;DHT22;44436;52.872;6.520;2022-09-01T14:33:56;25.90;48.20
58666;DHT22;44436;52.872;6.520;2022-09-01T14:36:24;25.90;48.80
58666;DHT22;44436;52.872;6.520;2022-09-01T14:38:51;25.80;49.00
58666;DHT22;44436;52.872;6.520;2022-09-01T14:41:19;25.60;49.40
58666;DHT22;44436;52.872;6.520;2022-09-01T14:43:46;25.60;49.40
58666;DHT22;44436;52.872;6.520;2022-09-01T14:46:11;25.60;49.90
58666;DHT22;44436;52.872;6.520;2022-09-01T14:48:39;25.70;49.30
58666;DHT22;44436;52.872;6.520;2022-09-01T14:51:06;25.70;48.30
58666;DHT22;44436;52.872;6.520;2022-09-01T14:53:32;25.70;47.80
58666;DHT22;44436;52.872;6.520;2022-09-01T14:55:59;25.60;47.50
58666;DHT22;44436;52.872;6.520;2022-09-01T14:58:25;25.70;48.20
58666;DHT22;44436;52.872;6.520;2022-09-01T15:00:52;25.80;48.00
58666;DHT22;44436;52.872;6.520;2022-09-01T15:03:20;26.00;47.00
58666;DHT22;44436;52.872;6.520;2022-09-01T15:05:46;25.90;46.60
58666;DHT22;44436;52.872;6.520;2022-09-01T15:08:13;25.80;46.90
58666;DHT22;44436;52.872;6.520;2022-09-01T15:10:39;26.00;47.00
58666;DHT22;44436;52.872;6.520;2022-09-01T15:13:05;26.20;46.30
58666;DHT22;44436;52.872;6.520;2022-09-01T15:15:31;26.10;45.80
58666;DHT22;44436;52.872;6.520;2022-09-01T15:17:58;26.00;45.80
58666;DHT22;44436;52.872;6.520;2022-09-01T15:20:26;25.80;45.50
58666;DHT22;44436;52.872;6.520;2022-09-01T15:23:18;25.70;47.10
58666;DHT22;44436;52.872;6.520;2022-09-01T15:25:45;25.70;47.50
58666;DHT22;44436;52.872;6.520;2022-09-01T15:28:11;26.00;47.40
58666;DHT22;44436;52.872;6.520;2022-09-01T15:30:38;26.40;46.90
58666;DHT22;44436;52.872;6.520;2022-09-01T15:33:05;26.80;46.40
58666;DHT22;44436;52.872;6.520;2022-09-01T15:35:31;27.00;44.70
58666;DHT22;44436;52.872;6.520;2022-09-01T15:37:57;26.90;44.10
58666;DHT22;44436;52.872;6.520;2022-09-01T15:40:24;26.80;44.40
58666;DHT22;44436;52.872;6.520;2022-09-01T15:42:50;26.70;44.80
58666;DHT22;44436;52.872;6.520;2022-09-01T15:45:20;26.60;45.00
58666;DHT22;44436;52.872;6.520;2022-09-01T15:47:46;26.60;45.20
58666;DHT22;44436;52.872;6.520;2022-09-01T15:50:15;26.40;45.70
58666;DHT22;44436;52.872;6.520;2022-09-01T15:55:20;26.20;46.10
58666;DHT22;44436;52.872;6.520;2022-09-01T15:57:46;26.10;46.50
58666;DHT22;44436;52.872;6.520;2022-09-01T16:00:12;26.00;46.30
58666;DHT22;44436;52.872;6.520;2022-09-01T16:02:38;25.90;46.70
58666;DHT22;44436;52.872;6.520;2022-09-01T16:05:04;26.00;46.70
58666;DHT22;44436;52.872;6.520;2022-09-01T16:07:30;26.40;46.30
58666;DHT22;44436;52.872;6.520;2022-09-01T16:09:56;26.80;45.60
58666;DHT22;44436;52.872;6.520;2022-09-01T16:12:24;27.30;45.20
58666;DHT22;44436;52.872;6.520;2022-09-01T16:14:51;27.70;44.40
58666;DHT22;44436;52.872;6.520;2022-09-01T16:17:37;28.20;43.40
58666;DHT22;44436;52.872;6.520;2022-09-01T16:20:17;28.50;42.10
58666;DHT22;44436;52.872;6.520;2022-09-01T16:22:54;28.80;42.20
58666;DHT22;44436;52.872;6.520;2022-09-01T16:25:29;29.10;41.80
58666;DHT22;44436;52.872;6.520;2022-09-01T16:27:58;29.40;41.40
58666;DHT22;44436;52.872;6.520;2022-09-01T16:30:27;29.60;40.70
58666;DHT22;44436;52.872;6.520;2022-09-01T16:32:56;29.70;39.70
58666;DHT22;44436;52.872;6.520;2022-09-01T16:35:34;29.60;39.50
58666;DHT22;44436;52.872;6.520;2022-09-01T16:38:26;29.40;39.10
58666;DHT22;44436;52.872;6.520;2022-09-01T16:41:08;29.10;40.00
58666;DHT22;44436;52.872;6.520;2022-09-01T16:49:49;28.40;42.00
58666;DHT22;44436;52.872;6.520;2022-09-01T16:52:26;28.10;41.40
58666;DHT22;44436;52.872;6.520;2022-09-01T17:01:05;27.40;41.00
58666;DHT22;44436;52.872;6.520;2022-09-01T17:03:35;27.10;41.20
58666;DHT22;44436;52.872;6.520;2022-09-01T17:06:29;26.90;41.50
58666;DHT22;44436;52.872;6.520;2022-09-01T17:09:08;26.80;41.60
58666;DHT22;44436;52.872;6.520;2022-09-01T17:11:49;26.50;41.60
58666;DHT22;44436;52.872;6.520;2022-09-01T17:14:21;26.20;41.60
58666;DHT22;44436;52.872;6.520;2022-09-01T17:16:51;26.00;42.80
58666;DHT22;44436;52.872;6.520;2022-09-01T17:19:20;25.80;43.50
58666;DHT22;44436;52.872;6.520;2022-09-01T17:21:48;25.70;43.20
58666;DHT22;44436;52.872;6.520;2022-09-01T17:27:01;25.40;43.30
58666;DHT22;44436;52.872;6.520;2022-09-01T17:29:37;25.20;43.40